createdAt,value
2016-08-29T00:00:47.812Z,21.44
2016-08-29T00:01:47.757Z,21.35
2016-08-29T00:02:47.924Z,21.32
2016-08-29T00:03:48.283Z,21.32
2016-08-29T00:04:47.699Z,21.3
2016-08-29T00:05:47.597Z,21.27
2016-08-29T00:06:47.949Z,21.29
2016-08-29T00:07:46.811Z,21.29
2016-08-29T00:08:47.649Z,21.2
2016-08-29T00:09:46.710Z,21.14
2016-08-29T00:10:47.597Z,21.24
2016-08-29T00:11:47.331Z,21.04
2016-08-29T00:12:47.335Z,21.09
2016-08-29T00:13:47.253Z,21.11
2016-08-29T00:14:47.233Z,21.14
2016-08-29T00:15:47.354Z,21.09
2016-08-29T00:16:47.314Z,21.05
2016-08-29T00:17:46.764Z,21.02
2016-08-29T00:18:47.024Z,21.02
2016-08-29T00:19:46.982Z,21.01
2016-08-29T00:20:46.923Z,21.08
2016-08-29T00:21:46.895Z,21.16
2016-08-29T00:22:46.861Z,21.05
2016-08-29T00:23:47.003Z,21.02
2016-08-29T00:24:46.955Z,21.09
2016-08-29T00:25:46.712Z,21.06
2016-08-29T00:26:46.667Z,21.08
2016-08-29T00:27:46.621Z,21.08
2016-08-29T00:28:45.881Z,21.02
2016-08-29T00:29:46.743Z,20.93
2016-08-29T00:30:46.494Z,20.95
2016-08-29T00:31:45.993Z,20.89
2016-08-29T00:32:46.407Z,20.93
2016-08-29T00:33:45.695Z,20.96
2016-08-29T00:34:46.333Z,21.06
2016-08-29T00:35:46.285Z,21.05
2016-08-29T00:36:46.224Z,21.14
2016-08-29T00:37:46.183Z,21.13
2016-08-29T00:38:46.337Z,21.14
2016-08-29T00:39:46.093Z,21.14
2016-08-29T00:40:46.470Z,21.06
2016-08-29T00:41:46.223Z,21.09
2016-08-29T00:42:45.953Z,21.06
2016-08-29T00:43:46.330Z,21.11
2016-08-29T00:44:45.885Z,21.17
2016-08-29T00:45:45.571Z,21.13
2016-08-29T00:46:46.771Z,21.2
2016-08-29T00:47:45.753Z,21.2
2016-08-29T00:48:45.762Z,21.11
2016-08-29T00:49:45.643Z,21.17
2016-08-29T00:50:45.642Z,21.13
2016-08-29T00:51:44.867Z,21.09
2016-08-29T00:52:45.723Z,21.09
2016-08-29T00:53:45.483Z,21.09
2016-08-29T00:54:45.424Z,21.08
2016-08-29T00:55:45.394Z,21.13
2016-08-29T00:56:45.334Z,21.06
2016-08-29T00:57:45.694Z,20.95
2016-08-29T00:58:45.273Z,21.04
2016-08-29T00:59:45.417Z,21.01
2016-08-29T01:00:45.165Z,20.93
2016-08-29T01:01:45.155Z,20.93
2016-08-29T01:02:45.093Z,20.91
2016-08-29T01:03:45.239Z,20.91
2016-08-29T01:04:45.000Z,20.83
2016-08-29T01:05:44.949Z,20.84
2016-08-29T01:06:44.914Z,20.74
2016-08-29T01:07:45.065Z,20.76
2016-08-29T01:08:45.027Z,20.76
2016-08-29T01:09:44.276Z,20.76
2016-08-29T01:10:44.034Z,20.74
2016-08-29T01:11:44.730Z,20.72
2016-08-29T01:12:43.938Z,20.58
2016-08-29T01:13:43.906Z,20.64
2016-08-29T01:14:44.772Z,20.62
2016-08-29T01:15:44.505Z,20.61
2016-08-29T01:16:44.665Z,20.66
2016-08-29T01:17:43.930Z,20.64
2016-08-29T01:18:44.382Z,20.64
2016-08-29T01:19:44.335Z,20.65
2016-08-29T01:20:43.586Z,20.69
2016-08-29T01:21:44.244Z,20.77
2016-08-29T01:22:44.196Z,20.74
2016-08-29T01:23:44.175Z,20.81
2016-08-29T01:24:44.110Z,20.72
2016-08-29T01:25:44.070Z,20.72
2016-08-29T01:26:44.025Z,20.71
2016-08-29T01:27:44.397Z,20.81
2016-08-29T01:28:43.940Z,20.69
2016-08-29T01:29:44.097Z,20.71
2016-08-29T01:30:44.057Z,20.79
2016-08-29T01:31:43.997Z,20.76
2016-08-29T01:32:43.769Z,20.76
2016-08-29T01:33:44.129Z,20.77
2016-08-29T01:34:43.865Z,20.62
2016-08-29T01:35:43.647Z,20.66
2016-08-29T01:36:43.578Z,20.69
2016-08-29T01:37:43.532Z,20.74
2016-08-29T01:38:43.897Z,20.76
2016-08-29T01:39:43.522Z,20.69
2016-08-29T01:40:43.398Z,20.61
2016-08-29T01:41:42.856Z,20.62
2016-08-29T01:42:43.309Z,20.56
2016-08-29T01:43:43.285Z,20.42
2016-08-29T01:44:43.426Z,20.43
2016-08-29T01:45:43.196Z,20.38
2016-08-29T01:46:43.156Z,20.3
2016-08-29T01:47:43.093Z,20.35
2016-08-29T01:48:43.058Z,20.51
2016-08-29T01:49:43.244Z,20.53
2016-08-29T01:50:42.510Z,20.59
2016-08-29T01:51:43.147Z,20.5
2016-08-29T01:52:43.076Z,20.43
2016-08-29T01:53:43.045Z,20.58
2016-08-29T01:54:42.083Z,20.51
2016-08-29T01:55:42.244Z,20.65
2016-08-29T01:56:42.705Z,20.71
2016-08-29T01:57:42.656Z,20.62
2016-08-29T01:58:42.621Z,20.54
2016-08-29T01:59:42.562Z,20.47
2016-08-29T02:00:42.723Z,20.5
2016-08-29T02:01:42.671Z,20.49
2016-08-29T02:02:42.727Z,20.56
2016-08-29T02:03:42.303Z,20.53
2016-08-29T02:04:42.333Z,20.5
2016-08-29T02:05:42.292Z,20.39
2016-08-29T02:06:42.271Z,20.41
2016-08-29T02:07:42.422Z,20.43
2016-08-29T02:08:41.520Z,20.39
2016-08-29T02:09:42.122Z,20.46
2016-08-29T02:10:42.103Z,20.47
2016-08-29T02:11:41.332Z,20.53
2016-08-29T02:12:41.983Z,20.64
2016-08-29T02:13:41.963Z,20.66
2016-08-29T02:14:41.244Z,20.53
2016-08-29T02:15:41.867Z,20.35
2016-08-29T02:16:41.816Z,20.42
2016-08-29T02:17:41.782Z,20.47
2016-08-29T02:18:41.721Z,20.51
2016-08-29T02:19:41.713Z,20.53
2016-08-29T02:20:41.634Z,20.43
2016-08-29T02:21:41.596Z,20.43
2016-08-29T02:22:41.535Z,20.38
2016-08-29T02:23:41.504Z,20.28
2016-08-29T02:24:41.454Z,20.28
2016-08-29T02:25:41.413Z,20.28
2016-08-29T02:26:41.573Z,20.23
2016-08-29T02:27:41.324Z,20.24
2016-08-29T02:28:41.275Z,20.21
2016-08-29T02:29:41.235Z,20.23
2016-08-29T02:30:39.985Z,20.33
2016-08-29T02:31:41.345Z,20.35
2016-08-29T02:32:41.105Z,20.34
2016-08-29T02:33:41.153Z,20.34
2016-08-29T02:34:41.032Z,20.5
2016-08-29T02:35:40.966Z,20.58
2016-08-29T02:36:41.156Z,20.46
2016-08-29T02:37:40.884Z,20.41
2016-08-29T02:38:40.834Z,20.33
2016-08-29T02:39:40.794Z,20.38
2016-08-29T02:40:40.946Z,20.33
2016-08-29T02:41:40.085Z,20.41
2016-08-29T02:42:40.667Z,20.41
2016-08-29T02:43:40.635Z,20.43
2016-08-29T02:44:39.895Z,20.41
2016-08-29T02:45:40.744Z,20.31
2016-08-29T02:46:40.557Z,20.2
2016-08-29T02:47:40.632Z,20.13
2016-08-29T02:48:40.594Z,20.15
2016-08-29T02:49:40.554Z,20.15
2016-08-29T02:50:40.310Z,20.16
2016-08-29T02:51:40.474Z,20.2
2016-08-29T02:52:40.225Z,20.18
2016-08-29T02:53:40.184Z,20.2
2016-08-29T02:54:40.125Z,20.15
2016-08-29T02:55:40.079Z,19.98
2016-08-29T02:56:40.054Z,19.98
2016-08-29T02:57:40.184Z,19.95
2016-08-29T02:58:39.947Z,20
2016-08-29T02:59:39.614Z,20.06
2016-08-29T03:00:40.064Z,20.15
2016-08-29T03:01:39.814Z,20.23
2016-08-29T03:02:39.970Z,20.15
2016-08-29T03:03:39.730Z,20.2
2016-08-29T03:04:39.674Z,20.21
2016-08-29T03:05:39.123Z,20.39
2016-08-29T03:06:39.585Z,20.25
2016-08-29T03:07:39.545Z,20.21
2016-08-29T03:08:39.501Z,20.24
2016-08-29T03:09:39.684Z,20.18
2016-08-29T03:10:39.415Z,20.09
2016-08-29T03:11:39.582Z,20
2016-08-29T03:12:39.361Z,20.02
2016-08-29T03:13:39.286Z,19.94
2016-08-29T03:14:39.235Z,20.12
2016-08-29T03:15:39.204Z,20.13
2016-08-29T03:16:37.734Z,20.16
2016-08-29T03:17:39.110Z,20.1
2016-08-29T03:18:38.363Z,20.05
2016-08-29T03:19:38.998Z,20.1
2016-08-29T03:20:38.952Z,20.16
2016-08-29T03:21:39.144Z,20.13
2016-08-29T03:22:38.896Z,20.2
2016-08-29T03:23:39.226Z,20.24
2016-08-29T03:24:38.289Z,20.15
2016-08-29T03:25:38.750Z,20
2016-08-29T03:26:38.724Z,19.93
2016-08-29T03:27:38.657Z,19.8
2016-08-29T03:28:38.113Z,19.86
2016-08-29T03:29:38.558Z,19.87
2016-08-29T03:30:38.515Z,19.91
2016-08-29T03:31:38.463Z,19.87
2016-08-29T03:32:38.432Z,19.84
2016-08-29T03:33:38.424Z,19.8
2016-08-29T03:34:38.550Z,19.88
2016-08-29T03:35:38.304Z,19.94
2016-08-29T03:36:38.453Z,19.94
2016-08-29T03:37:38.214Z,19.98
2016-08-29T03:38:38.155Z,20.08
2016-08-29T03:39:38.114Z,19.98
2016-08-29T03:40:38.288Z,19.97
2016-08-29T03:41:38.014Z,19.87
2016-08-29T03:42:37.973Z,19.98
2016-08-29T03:43:37.944Z,19.93
2016-08-29T03:44:37.896Z,19.9
2016-08-29T03:45:37.874Z,19.88
2016-08-29T03:46:38.020Z,19.87
2016-08-29T03:47:37.836Z,19.87
2016-08-29T03:48:37.715Z,19.83
2016-08-29T03:49:37.688Z,19.86
2016-08-29T03:50:37.824Z,19.87
2016-08-29T03:51:37.575Z,19.88
2016-08-29T03:52:37.739Z,19.84
2016-08-29T03:53:37.489Z,19.75
2016-08-29T03:54:37.645Z,19.86
2016-08-29T03:55:37.665Z,19.87
2016-08-29T03:56:37.353Z,19.84
2016-08-29T03:57:37.322Z,19.8
2016-08-29T03:58:37.486Z,19.93
2016-08-29T03:59:37.215Z,20
2016-08-29T04:00:37.176Z,20.06
2016-08-29T04:01:36.626Z,20.13
2016-08-29T04:02:37.087Z,20.18
2016-08-29T04:03:37.033Z,20.23
2016-08-29T04:04:36.986Z,20.27
2016-08-29T04:05:36.966Z,20.41
2016-08-29T04:06:36.905Z,20.42
2016-08-29T04:07:37.056Z,20.46
2016-08-29T04:08:36.109Z,20.39
2016-08-29T04:09:36.986Z,20.39
2016-08-29T04:10:36.838Z,20.5
2016-08-29T04:11:36.890Z,20.41
2016-08-29T04:12:36.836Z,20.33
2016-08-29T04:13:36.595Z,20.39
2016-08-29T04:14:36.747Z,20.3
2016-08-29T04:15:36.705Z,20.24
2016-08-29T04:16:36.435Z,20.42
2016-08-29T04:17:35.728Z,20.42
2016-08-29T04:18:36.363Z,20.41
2016-08-29T04:19:36.366Z,20.5
2016-08-29T04:20:36.272Z,20.56
2016-08-29T04:21:35.560Z,20.53
2016-08-29T04:22:36.409Z,20.59
2016-08-29T04:23:36.149Z,20.59
2016-08-29T04:24:36.103Z,20.58
2016-08-29T04:25:36.064Z,20.62
2016-08-29T04:26:36.015Z,20.62
2016-08-29T04:27:35.975Z,20.53
2016-08-29T04:28:36.125Z,20.65
2016-08-29T04:29:36.076Z,20.76
2016-08-29T04:30:35.834Z,20.77
2016-08-29T04:31:35.288Z,20.71
2016-08-29T04:32:35.742Z,20.74
2016-08-29T04:33:35.955Z,20.74
2016-08-29T04:34:35.868Z,20.77
2016-08-29T04:35:35.613Z,20.8
2016-08-29T04:36:35.577Z,20.8
2016-08-29T04:37:35.733Z,20.86
2016-08-29T04:38:35.484Z,20.79
2016-08-29T04:39:35.433Z,20.77
2016-08-29T04:40:35.417Z,20.8
2016-08-29T04:41:35.354Z,20.76
2016-08-29T04:42:35.366Z,20.72
2016-08-29T04:43:35.265Z,20.72
2016-08-29T04:44:35.214Z,20.68
2016-08-29T04:45:35.371Z,20.79
2016-08-29T04:46:35.137Z,20.81
2016-08-29T04:47:34.385Z,21.04
2016-08-29T04:48:35.064Z,21.06
2016-08-29T04:49:34.295Z,20.99
2016-08-29T04:50:34.953Z,20.96
2016-08-29T04:51:34.905Z,20.93
2016-08-29T04:52:34.944Z,20.89
2016-08-29T04:53:34.119Z,20.84
2016-08-29T04:54:34.074Z,20.87
2016-08-29T04:55:34.713Z,20.79
2016-08-29T04:56:34.670Z,20.9
2016-08-29T04:57:34.645Z,20.87
2016-08-29T04:58:34.612Z,21.01
2016-08-29T04:59:33.852Z,21.06
2016-08-29T05:00:34.505Z,21.11
2016-08-29T05:01:33.757Z,21.06
2016-08-29T05:02:34.415Z,21.01
2016-08-29T05:03:34.575Z,20.87
2016-08-29T05:04:34.324Z,20.84
2016-08-29T05:05:34.339Z,20.77
2016-08-29T05:06:34.443Z,20.74
2016-08-29T05:07:34.284Z,20.77
2016-08-29T05:08:34.159Z,20.71
2016-08-29T05:09:34.109Z,20.72
2016-08-29T05:10:34.067Z,20.71
2016-08-29T05:11:34.253Z,20.77
2016-08-29T05:12:33.975Z,20.83
2016-08-29T05:13:33.945Z,20.86
2016-08-29T05:14:34.080Z,20.81
2016-08-29T05:15:33.842Z,20.71
2016-08-29T05:16:33.800Z,20.68
2016-08-29T05:17:33.752Z,20.68
2016-08-29T05:18:33.912Z,20.69
2016-08-29T05:19:32.975Z,20.72
2016-08-29T05:20:33.666Z,20.76
2016-08-29T05:21:33.571Z,20.71
2016-08-29T05:22:33.731Z,20.79
2016-08-29T05:23:33.503Z,20.79
2016-08-29T05:24:33.444Z,20.81
2016-08-29T05:25:33.400Z,20.68
2016-08-29T05:26:33.404Z,20.77
2016-08-29T05:27:33.318Z,20.71
2016-08-29T05:28:33.272Z,20.68
2016-08-29T05:29:32.525Z,20.62
2016-08-29T05:30:33.254Z,20.71
2016-08-29T05:31:33.124Z,20.69
2016-08-29T05:32:33.092Z,20.74
2016-08-29T05:33:32.348Z,20.68
2016-08-29T05:34:33.019Z,20.61
2016-08-29T05:35:32.973Z,20.61
2016-08-29T05:36:32.919Z,20.62
2016-08-29T05:37:32.914Z,20.72
2016-08-29T05:38:32.824Z,20.68
2016-08-29T05:39:32.783Z,20.65
2016-08-29T05:40:32.735Z,20.71
2016-08-29T05:41:32.192Z,20.49
2016-08-29T05:42:32.641Z,20.53
2016-08-29T05:43:32.605Z,20.47
2016-08-29T05:44:32.554Z,20.46
2016-08-29T05:45:32.513Z,20.35
2016-08-29T05:46:33.137Z,20.47
2016-08-29T05:47:32.637Z,20.43
2016-08-29T05:48:32.383Z,20.51
2016-08-29T05:49:32.333Z,20.51
2016-08-29T05:50:32.492Z,20.54
2016-08-29T05:51:32.251Z,20.58
2016-08-29T05:52:31.503Z,20.65
2016-08-29T05:53:32.363Z,20.59
2016-08-29T05:54:32.114Z,20.53
2016-08-29T05:55:32.355Z,20.64
2016-08-29T05:56:32.027Z,20.76
2016-08-29T05:57:32.585Z,20.66
2016-08-29T05:58:31.234Z,20.64
2016-08-29T05:59:31.905Z,20.61
2016-08-29T06:00:31.855Z,20.51
2016-08-29T06:01:31.823Z,20.38
2016-08-29T06:02:31.075Z,20.56
2016-08-29T06:03:31.714Z,20.61
2016-08-29T06:04:31.696Z,20.59
2016-08-29T06:05:30.990Z,20.76
2016-08-29T06:06:31.629Z,20.69
2016-08-29T06:07:31.534Z,20.64
2016-08-29T06:08:31.534Z,20.54
2016-08-29T06:09:31.443Z,20.61
2016-08-29T06:10:30.724Z,20.65
2016-08-29T06:11:30.874Z,20.64
2016-08-29T06:12:29.915Z,20.53
2016-08-29T06:13:31.286Z,20.46
2016-08-29T06:14:31.225Z,20.5
2016-08-29T06:15:31.285Z,20.51
2016-08-29T06:16:30.434Z,20.62
2016-08-29T06:17:30.405Z,20.51
2016-08-29T06:18:31.454Z,20.46
2016-08-29T06:19:31.004Z,20.54
2016-08-29T06:20:31.182Z,20.58
2016-08-29T06:21:30.943Z,20.58
2016-08-29T06:22:31.068Z,20.62
2016-08-29T06:23:31.090Z,20.64
2016-08-29T06:24:30.784Z,20.65
2016-08-29T06:25:30.055Z,20.59
2016-08-29T06:26:30.895Z,20.5
2016-08-29T06:27:30.656Z,20.58
2016-08-29T06:28:30.606Z,20.64
2016-08-29T06:29:30.564Z,20.74
2016-08-29T06:30:30.985Z,20.69
2016-08-29T06:31:30.676Z,20.71
2016-08-29T06:32:30.425Z,20.76
2016-08-29T06:33:29.704Z,20.71
2016-08-29T06:34:30.356Z,20.8
2016-08-29T06:35:30.312Z,20.79
2016-08-29T06:36:30.250Z,20.8
2016-08-29T06:37:30.214Z,20.84
2016-08-29T06:38:28.776Z,20.79
2016-08-29T06:39:30.124Z,20.8
2016-08-29T06:40:31.260Z,20.81
2016-08-29T06:41:30.018Z,20.81
2016-08-29T06:42:30.179Z,20.81
2016-08-29T06:43:30.131Z,20.71
2016-08-29T06:44:30.100Z,20.71
2016-08-29T06:45:30.168Z,20.74
2016-08-29T06:46:30.032Z,20.8
2016-08-29T06:47:29.072Z,20.87
2016-08-29T06:48:29.713Z,20.87
2016-08-29T06:49:28.301Z,20.93
2016-08-29T06:50:29.876Z,21.06
2016-08-29T06:51:29.305Z,21.09
2016-08-29T06:52:29.789Z,21.11
2016-08-29T06:53:29.740Z,21.11
2016-08-29T06:54:29.741Z,21.14
2016-08-29T06:55:28.915Z,21.14
2016-08-29T06:56:29.586Z,21.16
2016-08-29T06:57:29.867Z,21.16
2016-08-29T06:58:29.293Z,21.16
2016-08-29T06:59:29.514Z,21.2
2016-08-29T07:00:29.321Z,21.17
2016-08-29T07:01:28.686Z,21.21
2016-08-29T07:02:29.157Z,21.16
2016-08-29T07:03:28.816Z,21.14
2016-08-29T07:04:27.626Z,21.17
2016-08-29T07:05:28.981Z,21.19
2016-08-29T07:06:28.432Z,21.17
2016-08-29T07:07:28.206Z,21.17
2016-08-29T07:08:29.089Z,21.2
2016-08-29T07:09:28.168Z,21.29
2016-08-29T07:10:28.758Z,21.21
2016-08-29T07:11:28.710Z,21.23
2016-08-29T07:12:28.688Z,21.2
2016-08-29T07:13:28.128Z,21.16
2016-08-29T07:14:28.616Z,21.26
2016-08-29T07:15:27.870Z,21.3
2016-08-29T07:16:28.527Z,21.3
2016-08-29T07:17:27.955Z,21.38
2016-08-29T07:18:27.905Z,21.42
2016-08-29T07:19:28.366Z,21.38
2016-08-29T07:20:28.236Z,21.38
2016-08-29T07:21:28.297Z,21.42
2016-08-29T07:22:28.255Z,21.45
2016-08-29T07:23:27.494Z,21.41
2016-08-29T07:24:28.207Z,21.42
2016-08-29T07:25:28.185Z,21.34
2016-08-29T07:26:28.407Z,21.42
2016-08-29T07:27:27.321Z,21.42
2016-08-29T07:28:27.270Z,21.46
2016-08-29T07:29:27.231Z,21.45
2016-08-29T07:30:28.393Z,21.64
2016-08-29T07:31:28.464Z,21.67
2016-08-29T07:32:28.025Z,21.6
2016-08-29T07:33:27.130Z,21.71
2016-08-29T07:34:27.914Z,21.72
2016-08-29T07:35:27.674Z,21.74
2016-08-29T07:36:27.684Z,21.76
2016-08-29T07:37:27.145Z,21.79
2016-08-29T07:38:26.139Z,21.76
2016-08-29T07:39:27.196Z,21.71
2016-08-29T07:40:27.674Z,21.75
2016-08-29T07:41:28.488Z,21.85
2016-08-29T07:42:27.361Z,21.92
2016-08-29T07:43:25.963Z,21.95
2016-08-29T07:44:27.282Z,22.1
2016-08-29T07:45:27.300Z,22.04
2016-08-29T07:46:26.527Z,22.1
2016-08-29T07:47:27.311Z,22.16
2016-08-29T07:48:27.135Z,22.25
2016-08-29T07:49:27.142Z,22.32
2016-08-29T07:50:26.512Z,22.28
2016-08-29T07:51:26.614Z,22.54
2016-08-29T07:52:26.232Z,22.57
2016-08-29T07:53:27.222Z,22.71
2016-08-29T07:54:26.385Z,22.75
2016-08-29T07:55:26.817Z,22.71
2016-08-29T07:56:26.126Z,22.78
2016-08-29T07:57:26.722Z,22.78
2016-08-29T07:58:25.986Z,22.83
2016-08-29T07:59:27.274Z,22.84
2016-08-29T08:00:25.942Z,22.8
2016-08-29T08:01:26.866Z,22.8
2016-08-29T08:02:26.088Z,22.74
2016-08-29T08:03:25.982Z,22.72
2016-08-29T08:04:26.885Z,22.69
2016-08-29T08:05:26.609Z,22.78
2016-08-29T08:06:26.582Z,22.75
2016-08-29T08:07:26.488Z,22.78
2016-08-29T08:08:25.769Z,22.78
2016-08-29T08:09:26.204Z,22.8
2016-08-29T08:10:27.650Z,22.82
2016-08-29T08:11:26.293Z,22.71
2016-08-29T08:12:26.668Z,22.5
2016-08-29T08:13:26.318Z,22.43
2016-08-29T08:14:24.853Z,22.28
2016-08-29T08:15:25.922Z,22.34
2016-08-29T08:16:26.110Z,22.35
2016-08-29T08:17:26.299Z,22.46
2016-08-29T08:18:25.857Z,22.41
2016-08-29T08:19:25.098Z,22.29
2016-08-29T08:20:25.812Z,22.29
2016-08-29T08:21:25.018Z,22.28
2016-08-29T08:22:25.751Z,22.23
2016-08-29T08:23:24.911Z,22.19
2016-08-29T08:24:26.563Z,22.1
2016-08-29T08:25:25.550Z,22.06
2016-08-29T08:26:25.495Z,22.07
2016-08-29T08:27:25.445Z,21.99
2016-08-29T08:28:25.408Z,22.09
2016-08-29T08:29:25.384Z,22.01
2016-08-29T08:30:26.141Z,21.83
2016-08-29T08:31:25.344Z,21.78
2016-08-29T08:32:24.512Z,21.64
2016-08-29T08:33:25.883Z,21.61
2016-08-29T08:34:25.189Z,21.5
2016-08-29T08:35:29.891Z,21.46
2016-08-29T08:36:26.858Z,21.45
2016-08-29T08:37:24.291Z,21.5
2016-08-29T08:38:25.060Z,21.42
2016-08-29T08:39:24.407Z,21.41
2016-08-29T08:40:24.886Z,21.48
2016-08-29T08:41:24.828Z,21.36
2016-08-29T08:42:24.780Z,21.39
2016-08-29T08:43:24.803Z,21.32
2016-08-29T08:44:25.094Z,21.17
2016-08-29T08:45:24.654Z,21.19
2016-08-29T08:46:24.650Z,21.21
2016-08-29T08:47:24.710Z,21.08
2016-08-29T08:48:24.642Z,20.91
2016-08-29T08:49:24.471Z,20.79
2016-08-29T08:50:23.779Z,20.81
2016-08-29T08:51:23.673Z,20.66
2016-08-29T08:52:24.487Z,20.51
2016-08-29T08:53:24.302Z,20.54
2016-08-29T08:54:24.127Z,20.41
2016-08-29T08:55:24.201Z,20.38
2016-08-29T08:56:24.156Z,20.46
2016-08-29T08:57:24.110Z,20.31
2016-08-29T08:58:24.062Z,20.23
2016-08-29T08:59:22.669Z,20.12
2016-08-29T09:00:23.471Z,20.12
2016-08-29T09:01:23.988Z,20
2016-08-29T09:02:23.490Z,20
2016-08-29T09:03:23.919Z,19.87
2016-08-29T09:04:23.788Z,19.84
2016-08-29T09:05:23.883Z,19.87
2016-08-29T09:06:23.579Z,19.83
2016-08-29T09:07:23.177Z,19.79
2016-08-29T09:08:23.615Z,19.73
2016-08-29T09:09:23.783Z,19.72
2016-08-29T09:10:22.838Z,19.61
2016-08-29T09:11:23.248Z,19.61
2016-08-29T09:12:26.782Z,19.61
2016-08-29T09:13:23.062Z,19.65
2016-08-29T09:14:23.480Z,19.63
2016-08-29T09:15:22.944Z,19.65
2016-08-29T09:16:23.300Z,19.63
2016-08-29T09:17:22.560Z,19.72
2016-08-29T09:18:23.965Z,19.87
2016-08-29T09:19:22.630Z,19.88
2016-08-29T09:20:23.274Z,19.95
2016-08-29T09:21:23.229Z,20.02
2016-08-29T09:22:22.993Z,20.08
2016-08-29T09:23:22.938Z,20.15
2016-08-29T09:24:23.099Z,20.28
2016-08-29T09:25:22.874Z,20.35
2016-08-29T09:26:21.658Z,20.41
2016-08-29T09:27:22.358Z,20.34
2016-08-29T09:28:23.129Z,20.41
2016-08-29T09:29:22.155Z,20.35
2016-08-29T09:30:22.796Z,20.35
2016-08-29T09:31:22.626Z,20.49
2016-08-29T09:32:21.804Z,20.68
2016-08-29T09:33:22.488Z,20.69
2016-08-29T09:34:22.671Z,20.69
2016-08-29T09:35:22.412Z,20.71
2016-08-29T09:36:22.529Z,20.58
2016-08-29T09:37:21.960Z,20.51
2016-08-29T09:38:21.568Z,20.47
2016-08-29T09:39:22.412Z,20.43
2016-08-29T09:40:21.500Z,20.38
2016-08-29T09:41:22.084Z,20.3
2016-08-29T09:42:22.158Z,20.38
2016-08-29T09:43:21.715Z,20.41
2016-08-29T09:44:22.377Z,20.34
2016-08-29T09:45:21.639Z,20.39
2016-08-29T09:46:22.093Z,20.28
2016-08-29T09:47:21.850Z,20.33
2016-08-29T09:48:21.471Z,20.31
2016-08-29T09:49:21.742Z,20.2
2016-08-29T09:50:20.739Z,20.1
2016-08-29T09:51:20.936Z,20.1
2016-08-29T09:52:21.617Z,20.1
2016-08-29T09:53:21.272Z,20.25
2016-08-29T09:54:21.832Z,20.24
2016-08-29T09:55:21.738Z,20.13
2016-08-29T09:56:20.215Z,20.1
2016-08-29T09:57:21.569Z,20.08
2016-08-29T09:58:20.613Z,20.13
2016-08-29T09:59:21.593Z,20.16
2016-08-29T10:00:21.650Z,20.09
2016-08-29T10:01:21.223Z,20.1
2016-08-29T10:02:20.878Z,20.12
2016-08-29T10:03:19.925Z,20.05
2016-08-29T10:04:21.074Z,20.03
2016-08-29T10:05:21.037Z,19.93
2016-08-29T10:06:19.564Z,19.95
2016-08-29T10:07:20.919Z,20
2016-08-29T10:08:20.857Z,20.03
2016-08-29T10:09:19.462Z,19.97
2016-08-29T10:10:20.070Z,19.98
2016-08-29T10:11:20.934Z,19.97
2016-08-29T10:12:20.819Z,19.95
2016-08-29T10:13:20.665Z,20.02
2016-08-29T10:14:20.593Z,20.05
2016-08-29T10:15:20.535Z,20.05
2016-08-29T10:16:20.610Z,20
2016-08-29T10:17:19.326Z,20.13
2016-08-29T10:18:19.787Z,20.13
2016-08-29T10:19:20.363Z,20.16
2016-08-29T10:20:20.381Z,20.1
2016-08-29T10:21:19.596Z,20.09
2016-08-29T10:22:20.493Z,20.18
2016-08-29T10:23:20.104Z,20.23
2016-08-29T10:24:20.173Z,20.39
2016-08-29T10:25:20.114Z,20.51
2016-08-29T10:26:20.054Z,20.53
2016-08-29T10:27:20.765Z,20.39
2016-08-29T10:28:19.969Z,20.39
2016-08-29T10:29:19.314Z,20.39
2016-08-29T10:30:20.230Z,20.38
2016-08-29T10:31:20.222Z,20.46
2016-08-29T10:32:19.847Z,20.42
2016-08-29T10:33:19.966Z,20.25
2016-08-29T10:34:19.777Z,20.21
2016-08-29T10:35:19.779Z,20.15
2016-08-29T10:36:18.900Z,20.06
2016-08-29T10:37:18.865Z,20.13
2016-08-29T10:38:19.721Z,20.25
2016-08-29T10:39:19.767Z,20.38
2016-08-29T10:40:19.754Z,20.5
2016-08-29T10:41:18.753Z,20.61
2016-08-29T10:42:18.636Z,20.59
2016-08-29T10:43:19.588Z,20.62
2016-08-29T10:44:18.527Z,20.59
2016-08-29T10:45:20.141Z,20.62
2016-08-29T10:46:18.299Z,20.77
2016-08-29T10:47:18.442Z,20.71
2016-08-29T10:48:18.385Z,20.8
2016-08-29T10:49:19.307Z,20.76
2016-08-29T10:50:18.958Z,20.83
2016-08-29T10:51:18.955Z,20.95
2016-08-29T10:52:18.960Z,21.01
2016-08-29T10:53:18.829Z,20.99
2016-08-29T10:54:18.883Z,21.09
2016-08-29T10:55:18.757Z,21.11
2016-08-29T10:56:17.488Z,21.16
2016-08-29T10:57:18.670Z,21.09
2016-08-29T10:58:18.017Z,21.14
2016-08-29T10:59:17.886Z,21.34
2016-08-29T11:00:19.177Z,21.32
2016-08-29T11:01:17.792Z,21.14
2016-08-29T11:02:18.467Z,21.14
2016-08-29T11:03:18.420Z,21.27
2016-08-29T11:04:17.827Z,21.23
2016-08-29T11:05:17.696Z,21.32
2016-08-29T11:06:17.764Z,21.44
2016-08-29T11:07:18.498Z,21.59
2016-08-29T11:08:16.857Z,21.66
2016-08-29T11:09:18.176Z,21.66
2016-08-29T11:10:17.405Z,21.6
2016-08-29T11:11:17.393Z,21.56
2016-08-29T11:12:17.997Z,21.44
2016-08-29T11:13:17.969Z,21.5
2016-08-29T11:14:16.516Z,21.45
2016-08-29T11:15:17.866Z,21.5
2016-08-29T11:16:17.811Z,21.53
2016-08-29T11:17:17.855Z,21.45
2016-08-29T11:18:17.734Z,21.48
2016-08-29T11:19:17.182Z,21.51
2016-08-29T11:20:17.642Z,21.5
2016-08-29T11:21:17.811Z,21.6
2016-08-29T11:22:18.346Z,21.48
2016-08-29T11:23:17.094Z,21.46
2016-08-29T11:24:17.548Z,21.35
2016-08-29T11:25:17.259Z,21.46
2016-08-29T11:26:16.886Z,21.57
2016-08-29T11:27:16.617Z,21.63
2016-08-29T11:28:17.480Z,21.59
2016-08-29T11:29:16.598Z,21.63
2016-08-29T11:30:17.549Z,21.64
2016-08-29T11:31:17.435Z,21.63
2016-08-29T11:32:17.121Z,21.74
2016-08-29T11:33:17.076Z,21.82
2016-08-29T11:34:16.741Z,21.97
2016-08-29T11:35:16.999Z,22.07
2016-08-29T11:36:16.442Z,22.06
2016-08-29T11:37:16.879Z,22.07
2016-08-29T11:38:16.308Z,22.09
2016-08-29T11:39:16.093Z,22.16
2016-08-29T11:40:16.754Z,22.2
2016-08-29T11:41:16.903Z,22.16
2016-08-29T11:42:15.994Z,22.25
2016-08-29T11:43:15.934Z,22.31
2016-08-29T11:44:17.264Z,22.32
2016-08-29T11:45:17.141Z,22.41
2016-08-29T11:46:16.014Z,22.34
2016-08-29T11:47:15.764Z,22.27
2016-08-29T11:48:15.701Z,22.39
2016-08-29T11:49:16.072Z,22.47
2016-08-29T11:50:16.488Z,22.57
2016-08-29T11:51:16.309Z,22.68
2016-08-29T11:52:16.437Z,22.62
2016-08-29T11:53:17.324Z,22.69
2016-08-29T11:54:16.415Z,22.65
2016-08-29T11:55:15.422Z,22.65
2016-08-29T11:56:16.676Z,22.72
2016-08-29T11:57:16.030Z,22.64
2016-08-29T11:58:15.994Z,22.74
2016-08-29T11:59:15.451Z,22.64
2016-08-29T12:00:15.390Z,22.75
2016-08-29T12:01:15.385Z,22.8
2016-08-29T12:02:15.803Z,22.82
2016-08-29T12:03:15.863Z,22.83
2016-08-29T12:04:15.026Z,22.86
2016-08-29T12:05:15.064Z,22.93
2016-08-29T12:06:15.663Z,22.86
2016-08-29T12:07:15.906Z,22.87
2016-08-29T12:08:14.866Z,22.8
2016-08-29T12:09:15.813Z,22.77
2016-08-29T12:10:15.518Z,22.62
2016-08-29T12:11:15.449Z,22.52
2016-08-29T12:12:15.846Z,22.46
2016-08-29T12:13:15.373Z,22.43
2016-08-29T12:14:14.662Z,22.52
2016-08-29T12:15:15.511Z,22.5
2016-08-29T12:16:15.316Z,22.49
2016-08-29T12:17:14.467Z,22.41
2016-08-29T12:18:15.156Z,22.47
2016-08-29T12:19:14.382Z,22.53
2016-08-29T12:20:15.438Z,22.59
2016-08-29T12:21:14.314Z,22.5
2016-08-29T12:22:15.088Z,22.59
2016-08-29T12:23:15.118Z,22.6
2016-08-29T12:24:14.393Z,22.62
2016-08-29T12:25:14.883Z,22.6
2016-08-29T12:26:14.087Z,22.6
2016-08-29T12:27:14.289Z,22.59
2016-08-29T12:28:14.017Z,22.68
2016-08-29T12:29:14.148Z,22.72
2016-08-29T12:30:14.638Z,22.75
2016-08-29T12:31:14.577Z,22.72
2016-08-29T12:32:15.078Z,22.62
2016-08-29T12:33:14.193Z,22.65
2016-08-29T12:34:14.759Z,22.6
2016-08-29T12:35:13.927Z,22.57
2016-08-29T12:36:14.626Z,22.46
2016-08-29T12:37:14.338Z,22.56
2016-08-29T12:38:13.828Z,22.43
2016-08-29T12:39:14.121Z,22.38
2016-08-29T12:40:14.788Z,22.23
2016-08-29T12:41:14.205Z,22.46
2016-08-29T12:42:14.288Z,22.43
2016-08-29T12:43:14.081Z,22.5
2016-08-29T12:44:13.535Z,22.43
2016-08-29T12:45:14.022Z,22.46
2016-08-29T12:46:12.748Z,22.47
2016-08-29T12:47:13.888Z,22.47
2016-08-29T12:48:13.854Z,22.52
2016-08-29T12:49:13.800Z,22.62
2016-08-29T12:50:13.762Z,22.59
2016-08-29T12:51:13.015Z,22.56
2016-08-29T12:52:13.877Z,22.62
2016-08-29T12:53:14.205Z,22.57
2016-08-29T12:54:13.797Z,22.62
2016-08-29T12:55:13.593Z,22.59